sensor_id;sensor_type;location;lat;lon;timestamp;pressure;altitude;pressure_sealevel;temperature;humidity
54306;BME280;66145;45.188;5.712;2023-04-02T00:07:47;98793.78;;;20.75;45.13
54306;BME280;66145;45.188;5.712;2023-04-02T00:10:34;98801.03;;;20.79;45.05
54306;BME280;66145;45.188;5.712;2023-04-02T00:15:37;98800.50;;;20.65;45.36
54306;BME280;66145;45.188;5.712;2023-04-02T00:18:03;98791.53;;;20.77;45.21
54306;BME280;66145;45.188;5.712;2023-04-02T00:20:35;98768.75;;;20.76;44.78
54306;BME280;66145;45.188;5.712;2023-04-02T00:23:03;98757.38;;;20.78;44.91
54306;BME280;66145;45.188;5.712;2023-04-02T00:25:33;98756.59;;;20.77;44.70
54306;BME280;66145;45.188;5.712;2023-04-02T00:27:59;98789.75;;;20.93;45.24
54306;BME280;66145;45.188;5.712;2023-04-02T00:30:25;98781.25;;;20.86;44.98
54306;BME280;66145;45.188;5.712;2023-04-02T00:32:51;98770.81;;;20.79;45.23
54306;BME280;66145;45.188;5.712;2023-04-02T00:35:22;98745.44;;;20.61;45.35
54306;BME280;66145;45.188;5.712;2023-04-02T00:37:49;98758.88;;;20.75;45.50
54306;BME280;66145;45.188;5.712;2023-04-02T00:40:26;98793.41;;;20.97;45.32
54306;BME280;66145;45.188;5.712;2023-04-02T00:42:55;98774.13;;;20.85;45.45
54306;BME280;66145;45.188;5.712;2023-04-02T00:45:30;98798.03;;;21.06;45.20
54306;BME280;66145;45.188;5.712;2023-04-02T00:47:59;98777.00;;;20.89;44.96
54306;BME280;66145;45.188;5.712;2023-04-02T00:50:35;98806.84;;;21.11;45.25
54306;BME280;66145;45.188;5.712;2023-04-02T00:53:11;98783.22;;;20.98;45.26
54306;BME280;66145;45.188;5.712;2023-04-02T00:55:40;98713.81;;;20.55;45.06
54306;BME280;66145;45.188;5.712;2023-04-02T00:58:33;98811.88;;;21.09;45.38
54306;BME280;66145;45.188;5.712;2023-04-02T01:01:00;98794.69;;;21.00;45.33
54306;BME280;66145;45.188;5.712;2023-04-02T01:03:32;98815.41;;;21.10;45.43
54306;BME280;66145;45.188;5.712;2023-04-02T01:06:11;98812.34;;;21.11;45.45
54306;BME280;66145;45.188;5.712;2023-04-02T01:09:05;98807.53;;;21.08;45.36
54306;BME280;66145;45.188;5.712;2023-04-02T01:22:34;98795.28;;;21.06;45.04
54306;BME280;66145;45.188;5.712;2023-04-02T01:25:04;98778.97;;;21.01;45.31
54306;BME280;66145;45.188;5.712;2023-04-02T01:27:45;98810.53;;;21.16;45.21
54306;BME280;66145;45.188;5.712;2023-04-02T01:30:14;98811.22;;;21.12;45.28
54306;BME280;66145;45.188;5.712;2023-04-02T01:32:41;98802.94;;;21.00;45.20
54306;BME280;66145;45.188;5.712;2023-04-02T01:35:08;98820.91;;;21.10;45.47
54306;BME280;66145;45.188;5.712;2023-04-02T01:37:57;98805.53;;;20.96;45.42
54306;BME280;66145;45.188;5.712;2023-04-02T01:45:43;98830.47;;;21.25;45.25
54306;BME280;66145;45.188;5.712;2023-04-02T01:48:22;98811.78;;;21.18;44.86
54306;BME280;66145;45.188;5.712;2023-04-02T01:50:50;98818.88;;;21.19;45.22
54306;BME280;66145;45.188;5.712;2023-04-02T01:53:20;98796.16;;;21.10;45.02
54306;BME280;66145;45.188;5.712;2023-04-02T01:55:53;98803.16;;;21.07;45.31
54306;BME280;66145;45.188;5.712;2023-04-02T01:58:21;98826.69;;;21.17;45.27
54306;BME280;66145;45.188;5.712;2023-04-02T02:03:28;98830.69;;;21.20;45.33
54306;BME280;66145;45.188;5.712;2023-04-02T02:05:54;98816.25;;;21.10;45.47
54306;BME280;66145;45.188;5.712;2023-04-02T02:08:54;98848.84;;;21.33;45.18
54306;BME280;66145;45.188;5.712;2023-04-02T02:11:26;98816.69;;;21.12;45.32
54306;BME280;66145;45.188;5.712;2023-04-02T02:13:56;98840.44;;;21.30;45.14
54306;BME280;66145;45.188;5.712;2023-04-02T02:16:23;98808.78;;;21.11;45.21
54306;BME280;66145;45.188;5.712;2023-04-02T02:18:54;98835.97;;;21.25;45.12
54306;BME280;66145;45.188;5.712;2023-04-02T02:21:42;98838.84;;;21.28;45.28
54306;BME280;66145;45.188;5.712;2023-04-02T02:24:35;98844.69;;;21.27;45.21
54306;BME280;66145;45.188;5.712;2023-04-02T02:30:08;98813.38;;;21.07;45.27
54306;BME280;66145;45.188;5.712;2023-04-02T02:32:43;98831.72;;;21.15;45.37
54306;BME280;66145;45.188;5.712;2023-04-02T02:35:17;98835.97;;;21.25;45.16
54306;BME280;66145;45.188;5.712;2023-04-02T02:37:49;98842.50;;;21.20;45.43
54306;BME280;66145;45.188;5.712;2023-04-02T02:40:21;98828.06;;;21.23;45.25
54306;BME280;66145;45.188;5.712;2023-04-02T02:42:54;98829.06;;;21.19;45.00
54306;BME280;66145;45.188;5.712;2023-04-02T02:45:24;98799.72;;;20.98;45.27
54306;BME280;66145;45.188;5.712;2023-04-02T02:47:52;98822.91;;;21.22;45.07
54306;BME280;66145;45.188;5.712;2023-04-02T02:50:24;98830.56;;;21.16;45.39
54306;BME280;66145;45.188;5.712;2023-04-02T02:52:57;98845.25;;;21.20;45.15
54306;BME280;66145;45.188;5.712;2023-04-02T02:55:36;98803.34;;;20.90;45.34
54306;BME280;66145;45.188;5.712;2023-04-02T02:58:19;98858.66;;;21.22;45.49
54306;BME280;66145;45.188;5.712;2023-04-02T03:00:48;98859.78;;;21.21;45.18
54306;BME280;66145;45.188;5.712;2023-04-02T03:03:19;98868.75;;;21.18;45.44
54306;BME280;66145;45.188;5.712;2023-04-02T03:05:52;98868.31;;;21.28;45.09
54306;BME280;66145;45.188;5.712;2023-04-02T03:08:25;98873.44;;;21.30;45.14
54306;BME280;66145;45.188;5.712;2023-04-02T03:11:01;98869.09;;;21.28;44.80
54306;BME280;66145;45.188;5.712;2023-04-02T03:13:36;98853.50;;;21.20;45.12
54306;BME280;66145;45.188;5.712;2023-04-02T03:19:07;98800.22;;;20.79;45.13
54306;BME280;66145;45.188;5.712;2023-04-02T03:21:43;98883.00;;;21.32;45.15
54306;BME280;66145;45.188;5.712;2023-04-02T03:30:00;98882.06;;;21.28;45.22
54306;BME280;66145;45.188;5.712;2023-04-02T03:32:36;98852.78;;;21.11;45.07
54306;BME280;66145;45.188;5.712;2023-04-02T03:35:09;98885.06;;;21.02;45.74
54306;BME280;66145;45.188;5.712;2023-04-02T03:37:49;98864.84;;;20.85;45.45
54306;BME280;66145;45.188;5.712;2023-04-02T03:43:35;98892.66;;;21.05;45.33
54306;BME280;66145;45.188;5.712;2023-04-02T03:48:58;98869.31;;;20.90;45.33
54306;BME280;66145;45.188;5.712;2023-04-02T03:51:48;98903.97;;;21.03;45.43
54306;BME280;66145;45.188;5.712;2023-04-02T03:54:16;98878.25;;;20.87;45.37
54306;BME280;66145;45.188;5.712;2023-04-02T03:56:43;98873.28;;;20.80;45.23
54306;BME280;66145;45.188;5.712;2023-04-02T03:59:33;98866.53;;;20.77;45.39
54306;BME280;66145;45.188;5.712;2023-04-02T04:02:32;98894.66;;;20.95;45.46
54306;BME280;66145;45.188;5.712;2023-04-02T04:05:00;98867.78;;;20.80;45.43
54306;BME280;66145;45.188;5.712;2023-04-02T04:07:32;98878.25;;;20.87;45.65
54306;BME280;66145;45.188;5.712;2023-04-02T04:10:00;98878.94;;;20.84;45.50
54306;BME280;66145;45.188;5.712;2023-04-02T04:12:30;98912.91;;;21.00;45.43
54306;BME280;66145;45.188;5.712;2023-04-02T04:15:08;98877.66;;;20.81;45.32
54306;BME280;66145;45.188;5.712;2023-04-02T04:18:04;98900.50;;;20.94;45.30
54306;BME280;66145;45.188;5.712;2023-04-02T04:20:56;98888.31;;;20.83;45.21
54306;BME280;66145;45.188;5.712;2023-04-02T04:23:29;98887.63;;;20.86;45.44
54306;BME280;66145;45.188;5.712;2023-04-02T04:26:00;98859.94;;;20.70;45.40
54306;BME280;66145;45.188;5.712;2023-04-02T04:31:44;98905.41;;;20.88;45.35
54306;BME280;66145;45.188;5.712;2023-04-02T04:34:21;98900.84;;;20.92;45.78
54306;BME280;66145;45.188;5.712;2023-04-02T04:36:54;98909.78;;;20.89;45.65
54306;BME280;66145;45.188;5.712;2023-04-02T04:39:30;98859.53;;;20.59;45.51
54306;BME280;66145;45.188;5.712;2023-04-02T04:42:01;98906.78;;;20.94;45.44
54306;BME280;66145;45.188;5.712;2023-04-02T04:44:48;98871.28;;;20.68;45.48
54306;BME280;66145;45.188;5.712;2023-04-02T04:47:31;98841.47;;;20.36;45.73
54306;BME280;66145;45.188;5.712;2023-04-02T04:52:38;98889.81;;;20.71;45.69
54306;BME280;66145;45.188;5.712;2023-04-02T04:55:27;98917.19;;;20.89;45.49
54306;BME280;66145;45.188;5.712;2023-04-02T04:58:05;98894.19;;;20.72;45.54
54306;BME280;66145;45.188;5.712;2023-04-02T05:08:54;98913.97;;;20.87;45.32
54306;BME280;66145;45.188;5.712;2023-04-02T05:11:34;98917.53;;;20.87;45.56
54306;BME280;66145;45.188;5.712;2023-04-02T05:14:06;98907.41;;;20.79;45.50
54306;BME280;66145;45.188;5.712;2023-04-02T05:16:36;98925.78;;;20.87;45.68
54306;BME280;66145;45.188;5.712;2023-04-02T05:19:29;98923.38;;;20.86;45.47
54306;BME280;66145;45.188;5.712;2023-04-02T05:22:16;98926.00;;;20.82;45.64
54306;BME280;66145;45.188;5.712;2023-04-02T05:24:54;98929.34;;;20.88;45.43
54306;BME280;66145;45.188;5.712;2023-04-02T05:30:03;98946.28;;;20.90;45.31
54306;BME280;66145;45.188;5.712;2023-04-02T05:32:35;98936.91;;;20.91;45.54
54306;BME280;66145;45.188;5.712;2023-04-02T05:35:02;98923.59;;;20.80;45.47
54306;BME280;66145;45.188;5.712;2023-04-02T05:37:30;98910.91;;;20.67;45.47
54306;BME280;66145;45.188;5.712;2023-04-02T05:39:59;98908.94;;;20.67;45.37
54306;BME280;66145;45.188;5.712;2023-04-02T05:42:34;98909.75;;;20.68;45.46
54306;BME280;66145;45.188;5.712;2023-04-02T05:47:33;98956.69;;;20.84;45.45
54306;BME280;66145;45.188;5.712;2023-04-02T05:52:38;98907.28;;;20.54;45.41
54306;BME280;66145;45.188;5.712;2023-04-02T05:57:43;98921.88;;;20.67;45.17
54306;BME280;66145;45.188;5.712;2023-04-02T06:00:17;98936.53;;;20.71;45.22
54306;BME280;66145;45.188;5.712;2023-04-02T06:02:52;98959.78;;;20.83;45.58
54306;BME280;66145;45.188;5.712;2023-04-02T06:05:23;98970.44;;;20.84;45.34
54306;BME280;66145;45.188;5.712;2023-04-02T06:07:56;98943.53;;;20.69;45.13
54306;BME280;66145;45.188;5.712;2023-04-02T06:10:26;98953.69;;;20.77;45.40
54306;BME280;66145;45.188;5.712;2023-04-02T06:12:59;98969.66;;;20.84;45.49
54306;BME280;66145;45.188;5.712;2023-04-02T06:15:29;98962.53;;;20.83;45.38
54306;BME280;66145;45.188;5.712;2023-04-02T06:18:14;98965.28;;;20.83;45.31
54306;BME280;66145;45.188;5.712;2023-04-02T06:20:41;98942.75;;;20.68;45.37
54306;BME280;66145;45.188;5.712;2023-04-02T06:23:13;98965.28;;;20.83;45.35
54306;BME280;66145;45.188;5.712;2023-04-02T06:25:45;98966.91;;;20.84;45.25
54306;BME280;66145;45.188;5.712;2023-04-02T06:28:26;98947.22;;;20.73;45.24
54306;BME280;66145;45.188;5.712;2023-04-02T06:30:58;98947.88;;;20.70;45.25
54306;BME280;66145;45.188;5.712;2023-04-02T06:33:25;98947.75;;;20.66;45.20
54306;BME280;66145;45.188;5.712;2023-04-02T06:35:51;98967.09;;;20.78;45.32
54306;BME280;66145;45.188;5.712;2023-04-02T06:38:23;98965.13;;;20.79;45.19
54306;BME280;66145;45.188;5.712;2023-04-02T06:40:57;98978.69;;;20.84;45.09
54306;BME280;66145;45.188;5.712;2023-04-02T06:43:28;98943.88;;;20.67;45.23
54306;BME280;66145;45.188;5.712;2023-04-02T06:45:58;98979.34;;;20.81;45.11
54306;BME280;66145;45.188;5.712;2023-04-02T06:48:27;98989.03;;;20.87;45.31
54306;BME280;66145;45.188;5.712;2023-04-02T06:51:02;98977.91;;;20.84;45.24
54306;BME280;66145;45.188;5.712;2023-04-02T06:53:37;98964.72;;;20.68;45.24
54306;BME280;66145;45.188;5.712;2023-04-02T06:58:32;98957.47;;;20.63;45.44
54306;BME280;66145;45.188;5.712;2023-04-02T07:00:57;98981.19;;;20.77;45.49
54306;BME280;66145;45.188;5.712;2023-04-02T07:03:29;98989.88;;;20.79;45.32
54306;BME280;66145;45.188;5.712;2023-04-02T07:05:56;98991.00;;;20.78;45.44
54306;BME280;66145;45.188;5.712;2023-04-02T07:08:22;98973.94;;;20.63;45.29
54306;BME280;66145;45.188;5.712;2023-04-02T07:10:47;98974.28;;;20.62;45.42
54306;BME280;66145;45.188;5.712;2023-04-02T07:13:15;98984.75;;;20.69;45.30
54306;BME280;66145;45.188;5.712;2023-04-02T07:15:43;99000.88;;;20.79;45.30
54306;BME280;66145;45.188;5.712;2023-04-02T07:18:22;99014.75;;;20.83;45.23
54306;BME280;66145;45.188;5.712;2023-04-02T07:20:48;99017.03;;;20.80;45.21
54306;BME280;66145;45.188;5.712;2023-04-02T07:23:13;98998.97;;;20.71;44.86
54306;BME280;66145;45.188;5.712;2023-04-02T07:25:38;99024.47;;;20.80;45.08
54306;BME280;66145;45.188;5.712;2023-04-02T07:28:04;98965.38;;;20.44;45.26
54306;BME280;66145;45.188;5.712;2023-04-02T07:30:30;99002.38;;;20.67;45.18
54306;BME280;66145;45.188;5.712;2023-04-02T07:32:56;98976.88;;;20.37;45.58
54306;BME280;66145;45.188;5.712;2023-04-02T07:35:21;98997.53;;;20.64;44.79
54306;BME280;66145;45.188;5.712;2023-04-02T07:37:46;99022.94;;;20.91;44.52
54306;BME280;66145;45.188;5.712;2023-04-02T07:40:19;99028.16;;;21.05;44.26
54306;BME280;66145;45.188;5.712;2023-04-02T07:42:47;99024.75;;;21.08;44.29
54306;BME280;66145;45.188;5.712;2023-04-02T07:45:12;98963.25;;;20.71;44.38
54306;BME280;66145;45.188;5.712;2023-04-02T07:47:38;99029.13;;;21.09;44.42
54306;BME280;66145;45.188;5.712;2023-04-02T07:50:05;99026.25;;;21.06;44.45
54306;BME280;66145;45.188;5.712;2023-04-02T07:52:30;99004.03;;;20.90;44.62
54306;BME280;66145;45.188;5.712;2023-04-02T07:54:56;99028.50;;;21.04;44.79
54306;BME280;66145;45.188;5.712;2023-04-02T07:57:21;99007.31;;;20.83;44.81
54306;BME280;66145;45.188;5.712;2023-04-02T07:59:46;98994.09;;;20.76;44.95
54306;BME280;66145;45.188;5.712;2023-04-02T08:02:19;99044.00;;;21.08;44.80
54306;BME280;66145;45.188;5.712;2023-04-02T08:04:46;99050.78;;;21.11;44.90
54306;BME280;66145;45.188;5.712;2023-04-02T08:07:12;99055.13;;;21.12;44.78
54306;BME280;66145;45.188;5.712;2023-04-02T08:09:37;99039.16;;;21.05;44.61
54306;BME280;66145;45.188;5.712;2023-04-02T08:12:03;99064.31;;;21.16;44.75
54306;BME280;66145;45.188;5.712;2023-04-02T08:14:28;99052.59;;;21.07;44.57
54306;BME280;66145;45.188;5.712;2023-04-02T08:16:54;99056.50;;;21.06;44.73
54306;BME280;66145;45.188;5.712;2023-04-02T08:19:20;99037.97;;;20.94;44.90
54306;BME280;66145;45.188;5.712;2023-04-02T08:21:47;99044.59;;;20.93;45.00
54306;BME280;66145;45.188;5.712;2023-04-02T08:24:15;99063.00;;;21.01;45.07
54306;BME280;66145;45.188;5.712;2023-04-02T08:26:47;99059.44;;;21.01;45.05
54306;BME280;66145;45.188;5.712;2023-04-02T08:29:12;99033.19;;;20.82;45.06
54306;BME280;66145;45.188;5.712;2023-04-02T08:31:37;99069.94;;;20.99;45.12
54306;BME280;66145;45.188;5.712;2023-04-02T08:34:03;99063.06;;;20.92;45.25
54306;BME280;66145;45.188;5.712;2023-04-02T08:36:32;99077.19;;;21.03;45.06
54306;BME280;66145;45.188;5.712;2023-04-02T08:38:58;99042.50;;;20.90;44.89
54306;BME280;66145;45.188;5.712;2023-04-02T08:41:28;99026.44;;;20.79;44.85
54306;BME280;66145;45.188;5.712;2023-04-02T08:46:39;99061.03;;;21.02;45.00
54306;BME280;66145;45.188;5.712;2023-04-02T08:49:12;99072.81;;;21.02;45.09
54306;BME280;66145;45.188;5.712;2023-04-02T08:51:39;99058.06;;;20.86;45.08
54306;BME280;66145;45.188;5.712;2023-04-02T08:54:21;99073.88;;;20.89;45.23
54306;BME280;66145;45.188;5.712;2023-04-02T08:57:05;99095.66;;;21.03;45.31
54306;BME280;66145;45.188;5.712;2023-04-02T08:59:38;99081.16;;;20.93;45.20
54306;BME280;66145;45.188;5.712;2023-04-02T09:04:49;99085.97;;;20.96;45.22
54306;BME280;66145;45.188;5.712;2023-04-02T09:07:16;99075.19;;;20.91;45.27
54306;BME280;66145;45.188;5.712;2023-04-02T09:09:42;99100.91;;;21.17;45.38
54306;BME280;66145;45.188;5.712;2023-04-02T09:12:17;99097.88;;;21.09;45.22
54306;BME280;66145;45.188;5.712;2023-04-02T09:17:21;99089.19;;;20.69;44.98
54306;BME280;66145;45.188;5.712;2023-04-02T09:19:53;99075.66;;;20.55;45.02
54306;BME280;66145;45.188;5.712;2023-04-02T09:22:22;99101.00;;;20.69;44.97
54306;BME280;66145;45.188;5.712;2023-04-02T09:24:53;99097.28;;;20.65;44.89
54306;BME280;66145;45.188;5.712;2023-04-02T09:27:31;99056.84;;;20.35;44.79
54306;BME280;66145;45.188;5.712;2023-04-02T09:30:01;99076.84;;;20.45;44.97
54306;BME280;66145;45.188;5.712;2023-04-02T09:35:17;99078.91;;;20.48;44.87
54306;BME280;66145;45.188;5.712;2023-04-02T09:37:44;99110.81;;;20.70;44.68
54306;BME280;66145;45.188;5.712;2023-04-02T09:40:23;99113.56;;;20.70;44.80
54306;BME280;66145;45.188;5.712;2023-04-02T09:45:28;99100.03;;;20.26;45.45
54306;BME280;66145;45.188;5.712;2023-04-02T09:47:54;99100.06;;;20.09;45.03
54306;BME280;66145;45.188;5.712;2023-04-02T09:52:47;99087.16;;;19.83;45.72
54306;BME280;66145;45.188;5.712;2023-04-02T09:55:28;99100.59;;;19.93;45.65
54306;BME280;66145;45.188;5.712;2023-04-02T09:58:14;99108.34;;;19.91;45.43
54306;BME280;66145;45.188;5.712;2023-04-02T10:00:49;99084.78;;;19.90;45.78
54306;BME280;66145;45.188;5.712;2023-04-02T10:03:26;99117.00;;;20.28;44.58
54306;BME280;66145;45.188;5.712;2023-04-02T10:06:13;99104.16;;;20.41;44.25
54306;BME280;66145;45.188;5.712;2023-04-02T10:08:41;99083.16;;;20.45;44.25
54306;BME280;66145;45.188;5.712;2023-04-02T10:11:13;99109.72;;;20.62;44.24
54306;BME280;66145;45.188;5.712;2023-04-02T10:13:54;99111.34;;;20.63;44.21
54306;BME280;66145;45.188;5.712;2023-04-02T10:16:31;99089.44;;;20.46;44.05
54306;BME280;66145;45.188;5.712;2023-04-02T10:21:41;99103.31;;;20.58;44.42
54306;BME280;66145;45.188;5.712;2023-04-02T10:24:13;99078.31;;;20.42;44.21
54306;BME280;66145;45.188;5.712;2023-04-02T10:32:19;99120.16;;;20.87;43.95
54306;BME280;66145;45.188;5.712;2023-04-02T10:35:00;99125.34;;;20.88;44.19
54306;BME280;66145;45.188;5.712;2023-04-02T10:40:13;99116.00;;;20.80;44.32
54306;BME280;66145;45.188;5.712;2023-04-02T10:49:10;99130.03;;;20.79;44.36
54306;BME280;66145;45.188;5.712;2023-04-02T10:51:45;99133.75;;;20.83;44.17
54306;BME280;66145;45.188;5.712;2023-04-02T10:56:46;99116.94;;;20.85;44.33
54306;BME280;66145;45.188;5.712;2023-04-02T10:59:23;99125.34;;;20.88;44.25
54306;BME280;66145;45.188;5.712;2023-04-02T11:01:52;99126.59;;;20.91;44.20
54306;BME280;66145;45.188;5.712;2023-04-02T11:04:41;99116.47;;;20.83;44.30
54306;BME280;66145;45.188;5.712;2023-04-02T11:07:17;99120.16;;;20.87;44.23
54306;BME280;66145;45.188;5.712;2023-04-02T11:09:49;99083.25;;;20.58;44.32
54306;BME280;66145;45.188;5.712;2023-04-02T11:12:33;99100.34;;;20.63;44.52
54306;BME280;66145;45.188;5.712;2023-04-02T11:15:01;99125.84;;;20.81;44.57
54306;BME280;66145;45.188;5.712;2023-04-02T11:17:27;99120.66;;;20.80;44.59
54306;BME280;66145;45.188;5.712;2023-04-02T11:19:52;99088.22;;;20.64;44.37
54306;BME280;66145;45.188;5.712;2023-04-02T11:22:23;99122.44;;;20.85;44.38
54306;BME280;66145;45.188;5.712;2023-04-02T11:27:24;99128.56;;;20.90;44.45
54306;BME280;66145;45.188;5.712;2023-04-02T11:42:32;99148.63;;;20.82;44.44
54306;BME280;66145;45.188;5.712;2023-04-02T11:52:53;99133.75;;;20.83;44.16
54306;BME280;66145;45.188;5.712;2023-04-02T11:55:30;99149.69;;;20.99;43.93
54306;BME280;66145;45.188;5.712;2023-04-02T11:58:33;99165.66;;;21.05;43.97
54306;BME280;66145;45.188;5.712;2023-04-02T12:01:19;99140.34;;;20.91;44.01
54306;BME280;66145;45.188;5.712;2023-04-02T12:11:59;99141.22;;;20.83;44.20
54306;BME280;66145;45.188;5.712;2023-04-02T12:16:54;99127.47;;;20.83;44.19
54306;BME280;66145;45.188;5.712;2023-04-02T12:19:21;99156.78;;;21.00;43.99
54306;BME280;66145;45.188;5.712;2023-04-02T12:21:46;99133.56;;;20.88;44.07
54306;BME280;66145;45.188;5.712;2023-04-02T12:24:20;99154.81;;;21.09;43.97
54306;BME280;66145;45.188;5.712;2023-04-02T12:26:46;99140.78;;;21.02;44.08
54306;BME280;66145;45.188;5.712;2023-04-02T12:29:27;99154.59;;;21.14;43.76
54306;BME280;66145;45.188;5.712;2023-04-02T12:31:55;99132.34;;;21.07;43.77
54306;BME280;66145;45.188;5.712;2023-04-02T12:34:23;99141.06;;;21.09;43.93
54306;BME280;66145;45.188;5.712;2023-04-02T12:36:56;99147.38;;;21.09;44.08
54306;BME280;66145;45.188;5.712;2023-04-02T12:39:24;99154.00;;;21.08;43.82
54306;BME280;66145;45.188;5.712;2023-04-02T12:41:50;99156.13;;;21.03;43.98
54306;BME280;66145;45.188;5.712;2023-04-02T12:44:18;99151.91;;;21.05;44.00
54306;BME280;66145;45.188;5.712;2023-04-02T12:46:47;99146.31;;;20.93;44.06
54306;BME280;66145;45.188;5.712;2023-04-02T12:51:57;99161.47;;;21.08;43.76
54306;BME280;66145;45.188;5.712;2023-04-02T12:54:23;99133.06;;;20.95;43.82
54306;BME280;66145;45.188;5.712;2023-04-02T12:56:49;99105.50;;;20.74;43.88
54306;BME280;66145;45.188;5.712;2023-04-02T12:59:35;99131.78;;;20.92;44.05
54306;BME280;66145;45.188;5.712;2023-04-02T13:02:13;99139.34;;;20.95;43.82
54306;BME280;66145;45.188;5.712;2023-04-02T13:04:52;99137.72;;;20.94;43.75
54306;BME280;66145;45.188;5.712;2023-04-02T13:07:20;99163.38;;;21.07;44.09
54306;BME280;66145;45.188;5.712;2023-04-02T13:09:48;99149.03;;;21.02;44.01
54306;BME280;66145;45.188;5.712;2023-04-02T13:12:37;99142.88;;;21.05;44.08
54306;BME280;66145;45.188;5.712;2023-04-02T13:15:08;99153.53;;;21.06;44.03
54306;BME280;66145;45.188;5.712;2023-04-02T13:18:05;99141.25;;;21.04;44.12
54306;BME280;66145;45.188;5.712;2023-04-02T13:20:32;99150.47;;;21.08;43.69
54306;BME280;66145;45.188;5.712;2023-04-02T13:22:59;99140.44;;;21.03;43.82
54306;BME280;66145;45.188;5.712;2023-04-02T13:25:34;99107.75;;;20.72;43.84
54306;BME280;66145;45.188;5.712;2023-04-02T13:28:00;99124.25;;;20.80;43.98
54306;BME280;66145;45.188;5.712;2023-04-02T13:30:26;99116.31;;;20.79;44.21
54306;BME280;66145;45.188;5.712;2023-04-02T13:32:53;99122.94;;;20.78;44.29
54306;BME280;66145;45.188;5.712;2023-04-02T13:35:18;99139.69;;;20.94;44.23
54306;BME280;66145;45.188;5.712;2023-04-02T13:37:45;99123.72;;;20.87;44.13
54306;BME280;66145;45.188;5.712;2023-04-02T13:40:15;99132.66;;;21.05;43.85
54306;BME280;66145;45.188;5.712;2023-04-02T13:42:42;99118.47;;;20.94;43.87
54306;BME280;66145;45.188;5.712;2023-04-02T13:45:32;99137.44;;;21.17;43.81
54306;BME280;66145;45.188;5.712;2023-04-02T13:47:57;99141.03;;;21.18;43.69
54306;BME280;66145;45.188;5.712;2023-04-02T13:50:26;99117.16;;;21.01;43.70
54306;BME280;66145;45.188;5.712;2023-04-02T13:52:53;99132.13;;;21.12;43.68
54306;BME280;66145;45.188;5.712;2023-04-02T13:55:24;99146.03;;;21.16;43.74
54306;BME280;66145;45.188;5.712;2023-04-02T13:57:51;99113.50;;;20.88;43.91
54306;BME280;66145;45.188;5.712;2023-04-02T14:00:17;99120.44;;;20.94;43.99
54306;BME280;66145;45.188;5.712;2023-04-02T14:02:47;99118.22;;;20.87;44.03
54306;BME280;66145;45.188;5.712;2023-04-02T14:05:26;99123.06;;;20.51;44.87
54306;BME280;66145;45.188;5.712;2023-04-02T14:10:51;99119.97;;;20.53;44.41
54306;BME280;66145;45.188;5.712;2023-04-02T14:13:39;99142.88;;;20.66;44.02
54306;BME280;66145;45.188;5.712;2023-04-02T14:19:47;99113.22;;;20.42;44.08
54306;BME280;66145;45.188;5.712;2023-04-02T14:35:53;99155.72;;;20.35;44.72
54306;BME280;66145;45.188;5.712;2023-04-02T14:38:35;99130.88;;;20.23;44.67
54306;BME280;66145;45.188;5.712;2023-04-02T14:41:20;99161.06;;;20.41;44.33
54306;BME280;66145;45.188;5.712;2023-04-02T14:44:00;99129.63;;;20.20;44.21
54306;BME280;66145;45.188;5.712;2023-04-02T14:46:30;99134.44;;;20.24;44.29
54306;BME280;66145;45.188;5.712;2023-04-02T14:49:08;99154.25;;;20.38;44.16
54306;BME280;66145;45.188;5.712;2023-04-02T14:51:37;99158.63;;;20.39;44.18
54306;BME280;66145;45.188;5.712;2023-04-02T14:54:29;99158.44;;;20.44;44.06
54306;BME280;66145;45.188;5.712;2023-04-02T14:57:04;99165.06;;;20.43;43.97
54306;BME280;66145;45.188;5.712;2023-04-02T15:03:02;99134.91;;;20.26;44.23
54306;BME280;66145;45.188;5.712;2023-04-02T15:05:49;99147.66;;;20.30;44.21
54306;BME280;66145;45.188;5.712;2023-04-02T15:08:29;99165.75;;;20.31;44.08
54306;BME280;66145;45.188;5.712;2023-04-02T15:16:19;99170.78;;;20.29;44.49
54306;BME280;66145;45.188;5.712;2023-04-02T15:18:50;99153.84;;;20.18;44.29
54306;BME280;66145;45.188;5.712;2023-04-02T15:31:45;99108.94;;;20.62;43.64
54306;BME280;66145;45.188;5.712;2023-04-02T15:34:33;99160.19;;;20.96;43.42
54306;BME280;66145;45.188;5.712;2023-04-02T15:40:29;99165.56;;;20.93;43.78
54306;BME280;66145;45.188;5.712;2023-04-02T15:54:01;99188.28;;;21.11;43.93
54306;BME280;66145;45.188;5.712;2023-04-02T15:59:15;99200.84;;;21.21;43.99
54306;BME280;66145;45.188;5.712;2023-04-02T16:01:57;99199.38;;;21.23;44.11
54306;BME280;66145;45.188;5.712;2023-04-02T16:12:35;99193.47;;;21.12;44.62
54306;BME280;66145;45.188;5.712;2023-04-02T16:15:13;99175.38;;;21.03;44.42
54306;BME280;66145;45.188;5.712;2023-04-02T16:17:42;99198.09;;;21.21;44.41
54306;BME280;66145;45.188;5.712;2023-04-02T16:20:18;99177.28;;;21.11;44.29
54306;BME280;66145;45.188;5.712;2023-04-02T16:22:53;99206.16;;;21.26;44.47
54306;BME280;66145;45.188;5.712;2023-04-02T16:25:23;99166.31;;;21.02;44.21
54306;BME280;66145;45.188;5.712;2023-04-02T16:30:40;99219.53;;;21.36;44.58
54306;BME280;66145;45.188;5.712;2023-04-02T16:36:27;99214.41;;;21.26;44.53
54306;BME280;66145;45.188;5.712;2023-04-02T16:42:19;99230.53;;;21.36;44.26
54306;BME280;66145;45.188;5.712;2023-04-02T16:47:28;99239.34;;;21.51;44.25
54306;BME280;66145;45.188;5.712;2023-04-02T16:55:21;99248.53;;;21.55;44.11
54306;BME280;66145;45.188;5.712;2023-04-02T16:58:12;99255.53;;;21.52;44.08
54306;BME280;66145;45.188;5.712;2023-04-02T17:00:47;99267.94;;;21.58;44.16
54306;BME280;66145;45.188;5.712;2023-04-02T17:06:21;99240.41;;;21.37;44.28
54306;BME280;66145;45.188;5.712;2023-04-02T17:11:39;99244.97;;;21.33;44.31
54306;BME280;66145;45.188;5.712;2023-04-02T17:14:18;99279.03;;;21.50;44.33
54306;BME280;66145;45.188;5.712;2023-04-02T17:16:49;99243.66;;;21.31;44.47
54306;BME280;66145;45.188;5.712;2023-04-02T17:19:17;99281.44;;;21.51;44.39
54306;BME280;66145;45.188;5.712;2023-04-02T17:21:47;99260.75;;;21.45;44.13